Flight Track Log - Related Links

Times and Time Zones

All times are in EST time to prevent confusion due to time zone crossing. See the AAY855 flight status page for this flight to view local times or setup timezone preferences in your user account.

Time Position Orientation Groundspeed Altitude Reporting Facility
EST Latitude Longitude Course Direction KTS MPH feet Rate Location/Type
Fri 12:28:58 PM 41.6631 -86.3947 136° Southeast 243 280 4,100  Level Chicago Center
Fri 12:30:00 PM 41.6164 -86.3339 136° Southeast 253 291 6,800 2,758 Climbing Chicago Center
Fri 12:31:02 PM 41.5753 -86.2544 125° Southeast 263 303 9,800 1,610 Climbing Chicago Center
Fri 12:32:03 PM 41.5244 -86.1617 126° Southeast 311 358 10,100 1,415 Climbing Chicago Center
Fri 12:33:05 PM 41.4658 -86.0569 127° Southeast 348 400 12,700 2,758 Climbing Chicago Center
Fri 12:34:07 PM 41.3928 -85.9247 126° Southeast 370 426 15,800 2,829 Climbing Chicago Center
Fri 12:35:08 PM 41.3278 -85.8081 127° Southeast 391 450 18,500 2,341 Climbing Chicago Center
Fri 12:36:10 PM 41.2611 -85.6914 127° Southeast 399 459 20,600 1,935 Climbing Chicago Center
Fri 12:37:12 PM 41.1933 -85.5669 126° Southeast 415 478 22,500 1,790 Climbing Chicago Center
Fri 12:38:14 PM 41.1222 -85.4444 128° Southeast 421 484 24,300 1,659 Climbing Chicago Center
Fri 12:39:15 PM 41.0508 -85.3181 127° Southeast 429 494 25,900 1,707 Climbing Chicago Center
Fri 12:40:17 PM 40.9169 -85.2467 158° South 453 521 27,800 1,500 Climbing Chicago Center
Fri 12:41:19 PM 40.7972 -85.2286 173° South 437 503 29,000 1,355 Climbing Chicago Center
Fri 12:42:21 PM 40.6756 -85.2119 174° South 440 506 30,600 968 Climbing Chicago Center
Fri 12:43:23 PM 40.5644 -85.1975 174° South 432 497 31,000 387 Climbing Chicago Center
Fri 12:44:25 PM 40.4167 -85.1753 173° South 442 509 31,400 829 Climbing Chicago Center
Fri 12:45:26 PM 40.2967 -85.1594 174° South 437 503 32,700 780 Climbing Chicago Center
Fri 12:46:28 PM 40.1794 -85.1433 174° South 428 493 33,000 145 Climbing Chicago Center
Fri 12:47:30 PM 40.0597 -85.1269 174° South 429 494 33,000  Level Chicago Center
Fri 12:48:32 PM 39.9389 -85.1103 174° South 434 499 33,000  Level Chicago Center
Fri 12:49:34 PM 39.8203 -85.0947 174° South 430 495 33,000  Level Chicago Center
Fri 12:50:35 PM 39.7019 -85.0775 174° South 428 493 33,000  Level Chicago Center
Fri 12:51:37 PM 39.5578 -85.0589 174° South 432 497 33,000  Level Chicago Center
Fri 12:53:05 PM 39.3889 -85.0367 174° South 436 502 33,000  Level Indianapolis Center
Fri 12:54:07 PM 39.2675 -85.0208 174° South 437 503 33,000  Level Indianapolis Center
Fri 12:55:08 PM 39.1472 -85.0047 174° South 436 502 33,000  Level Indianapolis Center
Fri 12:56:10 PM 39.0264 -84.9881 174° South 436 502 33,000  Level Indianapolis Center
Fri 12:57:12 PM 38.9081 -84.9714 174° South 431 496 33,000  Level Indianapolis Center
Fri 12:58:14 PM 38.7631 -84.9544 175° South 436 502 33,000  Level Indianapolis Center
Fri 12:59:15 PM 38.6433 -84.9372 174° South 433 498 33,000  Level Indianapolis Center
Fri 01:00:17 PM 38.5278 -84.9217 174° South 429 494 33,000  Level Indianapolis Center
Fri 01:01:19 PM 38.4094 -84.9064 174° South 428 493 33,000  Level Indianapolis Center
Fri 01:02:21 PM 38.2903 -84.8922 175° South 426 490 33,000  Level Indianapolis Center
Fri 01:03:22 PM 38.1511 -84.8731 174° South 430 495 33,000  Level Indianapolis Center
Fri 01:04:24 PM 38.0344 -84.8581 174° South 422 486 33,000  Level Indianapolis Center
Fri 01:05:26 PM 37.9219 -84.8425 174° South 411 473 33,000  Level Indianapolis Center
Fri 01:06:28 PM 37.8067 -84.8283 174° South 414 476 33,000  Level Indianapolis Center
Fri 01:07:29 PM 37.6911 -84.8128 174° South 416 479 33,000  Level Indianapolis Center
Fri 01:08:31 PM 37.5761 -84.7978 174° South 416 479 33,000  Level Indianapolis Center
Fri 01:09:33 PM 37.4408 -84.7819 175° South 417 480 33,000  Level Indianapolis Center
Fri 01:10:35 PM 37.3247 -84.7675 174° South 418 481 33,000  Level Indianapolis Center
Fri 01:11:36 PM 37.2100 -84.7644 179° South 415 478 33,000  Level Indianapolis Center
Fri 01:12:38 PM 37.1008 -84.7892 190° South 403 464 33,000  Level Indianapolis Center
Fri 01:13:40 PM 36.9953 -84.8133 190° South 403 464 33,000  Level Indianapolis Center
Fri 01:14:42 PM 36.8625 -84.8433 190° South 403 464 33,000  Level Indianapolis Center
Fri 01:15:44 PM 36.7489 -84.8394 178° South 410 472 33,000  Level Indianapolis Center
Fri 01:16:46 PM 36.6325 -84.8200 172° South 419 482 33,000  Level Indianapolis Center
Fri 01:17:47 PM 36.5153 -84.8031 173° South 422 486 33,000  Level Indianapolis Center
Fri 01:18:49 PM 36.3983 -84.7861 173° South 422 486 33,000  Level Indianapolis Center
Fri 01:20:51 PM 36.1647 -84.7536 174° South 426 490 33,000  Level Atlanta Center
Fri 01:21:54 PM 36.0519 -84.7356 173° South 415 478 33,000  Level Indianapolis Center
Fri 01:22:51 PM 35.9356 -84.7183 173° South 421 484 33,000  Level Atlanta Center
Fri 01:23:51 PM 35.8083 -84.7019 174° South 427 491 33,000  Level Atlanta Center
Fri 01:24:51 PM 35.6958 -84.6883 174° South 421 484 33,000  Level Atlanta Center
Fri 01:25:51 PM 35.5811 -84.6694 172° South 421 484 33,000  Level Atlanta Center
Fri 01:26:51 PM 35.4664 -84.6533 173° South 421 484 33,000  Level Atlanta Center
Fri 01:27:51 PM 35.3539 -84.6372 173° South 421 484 33,000  Level Atlanta Center
Fri 01:28:51 PM 35.2392 -84.6211 173° South 421 484 33,000  Level Atlanta Center
Fri 01:29:51 PM 35.1244 -84.6050 173° South 421 484 33,000  Level Atlanta Center
Fri 01:30:51 PM 35.0139 -84.5892 173° South 421 484 33,000  Level Atlanta Center
Fri 01:31:51 PM 34.8992 -84.5731 173° South 416 479 33,000  Level Atlanta Center
Fri 01:32:51 PM 34.7886 -84.5572 173° South 416 479 33,000  Level Atlanta Center
Fri 01:33:51 PM 34.6761 -84.5439 174° South 411 473 33,000  Level Atlanta Center
Fri 01:34:51 PM 34.5656 -84.5231 171° South 406 467 33,000  Level Atlanta Center
Fri 01:35:51 PM 34.4550 -84.5075 173° South 406 467 33,000  Level Atlanta Center
Fri 01:36:51 PM 34.3444 -84.4917 173° South 405 466 33,000  Level Atlanta Center
Fri 01:37:51 PM 34.2297 -84.4758 173° South 411 473 33,000  Level Atlanta Center
Fri 01:38:51 PM 34.1294 -84.4628 174° South 406 467 33,000  Level Atlanta Center
Fri 01:39:51 PM 34.0106 -84.4497 175° South 419 482 33,000  Level Atlanta Center
Fri 01:40:51 PM 33.9000 -84.4342 173° South 419 482 33,000  Level Atlanta Center
Fri 01:41:51 PM 33.7894 -84.4161 172° South 411 473 33,000  Level Atlanta Center
Fri 01:42:51 PM 33.6811 -84.4008 173° South 405 466 33,000  Level Atlanta Center
Fri 01:43:51 PM 33.5558 -84.3878 175° South 410 472 33,000  Level Atlanta Center
Fri 01:44:51 PM 33.4431 -84.3725 174° South 410 472 33,000  Level Atlanta Center
Fri 01:45:51 PM 33.3325 -84.3569 173° South 405 466 33,000  Level Atlanta Center
Fri 01:46:51 PM 33.2261 -84.3442 174° South 399 459 33,000  Level Atlanta Center
Fri 01:47:51 PM 33.1156 -84.3289 173° South 399 459 33,000  Level Atlanta Center
Fri 01:48:51 PM 33.0092 -84.3139 173° South 399 459 33,000  Level Atlanta Center
Fri 01:49:51 PM 32.9089 -84.3011 174° South 399 459 33,000  Level Atlanta Center
Fri 01:50:51 PM 32.8047 -84.2883 174° South 392 451 33,000  Level Atlanta Center
Fri 01:51:51 PM 32.6836 -84.2683 172° South 392 451 33,000  Level Atlanta Center
Fri 01:52:51 PM 32.5750 -84.2558 174° South 392 451 33,000  Level Atlanta Center
Fri 01:53:51 PM 32.4667 -84.2408 173° South 397 457 33,000  Level Atlanta Center
Fri 01:54:51 PM 32.3581 -84.2258 173° South 397 457 33,000  Level Atlanta Center
Fri 01:55:51 PM 32.2494 -84.2108 173° South 397 457 33,000  Level Atlanta Center
Fri 01:57:45 PM 32.0472 -84.1819 173° South 388 447 33,000  Level Jacksonville Center
Fri 01:58:45 PM 31.9431 -84.1706 175° South 388 447 33,000  Level Jacksonville Center
Fri 01:59:45 PM 31.8386 -84.1569 174° South 388 447 33,000  Level Jacksonville Center
Fri 02:00:45 PM 31.7344 -84.1433 174° South 388 447 33,000  Level Jacksonville Center
Fri 02:01:45 PM 31.6322 -84.1297 174° South 388 447 33,000  Level Jacksonville Center
Fri 02:02:45 PM 31.5258 -84.1161 174° South 388 447 33,000  Level Jacksonville Center
Fri 02:03:45 PM 31.4194 -84.1025 174° South 388 447 33,000  Level Jacksonville Center
Fri 02:04:45 PM 31.3133 -84.0867 173° South 388 447 33,000  Level Jacksonville Center
Fri 02:05:45 PM 31.2069 -84.0731 174° South 388 447 33,000  Level Jacksonville Center
Fri 02:06:45 PM 31.1006 -84.0594 174° South 388 447 33,000  Level Jacksonville Center
Fri 02:07:45 PM 30.9942 -84.0461 174° South 388 447 33,000  Level Jacksonville Center
Fri 02:08:45 PM 30.8878 -84.0328 174° South 388 447 33,000  Level Jacksonville Center
Fri 02:09:45 PM 30.7836 -84.0194 174° South 388 447 33,000  Level Jacksonville Center
Fri 02:10:45 PM 30.6772 -84.0036 173° South 388 447 33,000  Level Jacksonville Center
Fri 02:11:45 PM 30.5708 -83.9903 174° South 388 447 33,000  Level Jacksonville Center
Fri 02:12:45 PM 30.4664 -83.9794 175° South 383 441 33,000  Level Jacksonville Center
Fri 02:13:45 PM 30.3603 -83.9639 173° South 383 441 33,000  Level Jacksonville Center
Fri 02:14:45 PM 30.2539 -83.9506 174° South 388 447 33,000  Level Jacksonville Center
Fri 02:15:45 PM 30.1433 -83.9111 163° South 393 452 33,000  Level Jacksonville Center
Fri 02:16:45 PM 30.0372 -83.8619 158° South 398 458 33,000  Level Jacksonville Center
Fri 02:17:45 PM 29.9292 -83.8178 160° South 403 464 33,000  Level Jacksonville Center
Fri 02:18:45 PM 29.8231 -83.7711 159° South 408 470 33,000  Level Jacksonville Center
Fri 02:19:45 PM 29.7147 -83.7247 160° South 414 476 33,000 -400 Level Jacksonville Center
Fri 02:20:45 PM 29.6086 -83.6786 159° South 414 476 32,200 -1,150 Descending Jacksonville Center
Fri 02:21:45 PM 29.5022 -83.6322 159° South 409 471 30,700 -1,700 Descending Jacksonville Center
Fri 02:22:45 PM 29.3900 -83.5861 160° South 409 471 28,800 -2,100 Descending Jacksonville Center
Fri 02:23:45 PM 29.2775 -83.5353 158° South 425 489 26,500 -2,250 Descending Jacksonville Center
Fri 02:24:45 PM 29.1650 -83.4775 156° South 430 495 24,300 -2,250 Descending Jacksonville Center
Fri 02:25:45 PM 29.0567 -83.4081 151° Southeast 440 506 22,000 -2,300 Descending Jacksonville Center
Fri 02:26:45 PM 28.9506 -83.3411 151° Southeast 445 512 19,700 -2,250 Descending Jacksonville Center
Fri 02:27:45 PM 28.8464 -83.2767 152° Southeast 434 499 17,500 -2,100 Descending Jacksonville Center
Fri 02:28:45 PM 28.7483 -83.2100 149° Southeast 426 490 15,500 -1,800 Descending Jacksonville Center
Fri 02:30:15 PM 28.6000 -83.1167 151° Southeast 410 472 13,000 -1,239 Descending Tampa TRACON
Fri 02:31:20 PM 28.5000 -83.0500 150° Southeast 389 448 12,300 -905 Descending Tampa TRACON
Fri 02:32:21 PM 28.4000 -83.0000 156° South 341 392 11,100 -1,190 Descending Tampa TRACON
Fri 02:33:21 PM 28.3333 -82.9500 147° Southeast 306 352 9,900 -1,300 Descending Tampa TRACON
Fri 02:34:21 PM 28.2500 -82.9167 161° South 293 337 8,500 -1,350 Descending Tampa TRACON
Fri 02:35:21 PM 28.1833 -82.9000 168° South 273 314 7,200 -1,300 Descending Tampa TRACON
Fri 02:36:21 PM 28.1000 -82.8833 170° South 271 312 5,900 -1,300 Descending Tampa TRACON
Fri 02:37:21 PM 28.0333 -82.8667 168° South 266 306 4,600 -950 Descending Tampa TRACON
Fri 02:38:21 PM 27.9500 -82.8667 180° South 263 303 4,000 -526 Descending Tampa TRACON
Fri 02:39:15 PM 27.8833 -82.8500 168° South 266 306 3,600 -526 Descending Tampa TRACON
Fri 02:40:15 PM 27.8333 -82.8167 149° Southeast 266 306 3,000 -700 Descending Tampa TRACON
Fri 02:41:15 PM 27.8167 -82.7500 106° East 227 261 2,200 -762 Descending Tampa TRACON
Fri 02:42:21 PM 27.8167 -82.6833 90° East 155 178 1,400 -667 Descending Tampa TRACON
Fri 02:43:21 PM 27.8667 -82.6833 360° North 131 151 800 -600 Descending Tampa TRACON

Login

Don't have an account? Register now (free) for customized features, flight alerts, and more!